createdAt,value
2022-08-02T00:01:03.947Z,85.18
2022-08-02T00:03:33.860Z,85.42
2022-08-02T00:06:04.294Z,86.02
2022-08-02T00:08:33.379Z,86.56
2022-08-02T00:11:01.605Z,86.83
2022-08-02T00:13:30.050Z,86.36
2022-08-02T00:15:58.359Z,85.02
2022-08-02T00:18:26.602Z,85.14
2022-08-02T00:20:54.840Z,85.01
2022-08-02T00:23:25.133Z,84.85
2022-08-02T00:25:54.898Z,85.40
2022-08-02T00:28:27.246Z,86.59
2022-08-02T00:30:57.309Z,87.35
2022-08-02T00:34:26.938Z,87.84
2022-08-02T00:36:13.923Z,88.27
2022-08-02T00:38:43.575Z,88.33
2022-08-02T00:41:18.994Z,89.05
2022-08-02T00:43:48.804Z,89.42
2022-08-02T00:46:18.425Z,89.89
2022-08-02T00:48:46.835Z,89.57
2022-08-02T00:51:17.633Z,90.46
2022-08-02T00:53:47.382Z,90.33
2022-08-02T00:56:15.633Z,89.50
2022-08-02T00:58:43.890Z,90.28
2022-08-02T01:01:12.151Z,90.20
2022-08-02T01:03:40.453Z,90.20
2022-08-02T01:06:11.430Z,89.69
2022-08-02T01:08:40.551Z,89.77
2022-08-02T01:11:10.150Z,89.41
2022-08-02T01:13:38.435Z,88.71
2022-08-02T01:16:16.069Z,89.15
2022-08-02T01:18:50.311Z,89.37
2022-08-02T01:21:54.437Z,90.52
2022-08-02T01:24:49.427Z,91.14
2022-08-02T01:27:35.155Z,90.46
2022-08-02T01:30:11.417Z,89.98
2022-08-02T01:32:52.098Z,90.19
2022-08-02T01:35:28.247Z,90.11
2022-08-02T01:38:00.286Z,90.54
2022-08-02T01:40:32.191Z,90.87
2022-08-02T01:43:01.940Z,91.77
2022-08-02T01:45:36.889Z,92.01
2022-08-02T01:48:07.140Z,91.57
2022-08-02T01:50:38.429Z,89.99
2022-08-02T01:53:09.826Z,90.55
2022-08-02T01:55:58.183Z,90.40
2022-08-02T01:58:31.420Z,90.95
2022-08-02T02:01:02.158Z,92.24
2022-08-02T02:03:33.714Z,91.63
2022-08-02T02:06:05.488Z,93.30
2022-08-02T02:08:38.362Z,93.23
2022-08-02T02:12:05.820Z,93.15
2022-08-02T02:13:59.266Z,93.47
2022-08-02T02:16:31.982Z,91.84
2022-08-02T02:19:07.153Z,92.35
2022-08-02T02:21:35.401Z,92.21
2022-08-02T02:24:08.264Z,91.88
2022-08-02T02:26:52.043Z,91.30
2022-08-02T02:29:22.947Z,90.74
2022-08-02T02:31:56.063Z,91.29
2022-08-02T02:34:29.688Z,90.55
2022-08-02T02:37:03.003Z,90.26
2022-08-02T02:39:33.531Z,90.87
2022-08-02T02:42:05.230Z,91.56
2022-08-02T02:44:34.587Z,92.21
2022-08-02T02:47:04.937Z,92.52
2022-08-02T02:49:36.260Z,93.26
2022-08-02T02:52:05.877Z,92.68
2022-08-02T02:54:35.678Z,93.05
2022-08-02T02:57:06.986Z,93.24
2022-08-02T02:59:36.568Z,92.11
2022-08-02T03:02:15.515Z,92.62
2022-08-02T03:04:57.101Z,92.49
2022-08-02T03:07:27.368Z,93.22
2022-08-02T03:09:56.044Z,92.83
2022-08-02T03:12:31.334Z,92.90
2022-08-02T03:15:04.128Z,94.24
2022-08-02T03:17:41.732Z,94.34
2022-08-02T03:20:13.568Z,95.66
2022-08-02T03:22:42.663Z,96.06
2022-08-02T03:25:12.188Z,94.94
2022-08-02T03:27:41.257Z,95.42
2022-08-02T03:30:12.639Z,95.49
2022-08-02T03:32:45.398Z,95.55
2022-08-02T03:35:21.283Z,97.00
2022-08-02T03:37:53.982Z,97.74
2022-08-02T03:40:23.140Z,97.54
2022-08-02T03:42:52.144Z,97.68
2022-08-02T03:45:21.091Z,96.61
2022-08-02T03:47:51.675Z,96.46
2022-08-02T03:50:22.896Z,96.72
2022-08-02T03:52:51.964Z,96.36
2022-08-02T03:55:20.362Z,95.32
2022-08-02T03:57:49.308Z,94.40
2022-08-02T04:00:23.174Z,94.57
2022-08-02T04:02:53.250Z,93.71
2022-08-02T04:05:22.160Z,93.17
2022-08-02T04:08:33.000Z,92.53
2022-08-02T04:10:54.041Z,92.24
2022-08-02T04:13:24.845Z,92.59
2022-08-02T04:16:00.926Z,91.84
2022-08-02T04:18:38.220Z,92.23
2022-08-02T04:21:07.532Z,92.91
2022-08-02T04:23:37.770Z,93.59
2022-08-02T04:26:08.652Z,94.86
2022-08-02T04:28:39.912Z,95.74
2022-08-02T04:31:08.919Z,95.91
2022-08-02T04:33:39.242Z,96.45
2022-08-02T04:36:08.633Z,96.72
2022-08-02T04:38:36.907Z,97.19
2022-08-02T04:41:05.310Z,96.99
2022-08-02T04:43:33.524Z,97.43
2022-08-02T04:46:02.813Z,98.27
2022-08-02T04:48:31.934Z,98.69
2022-08-02T04:51:01.950Z,97.53
2022-08-02T04:53:30.223Z,98.62
2022-08-02T04:55:58.535Z,100.00
2022-08-02T04:58:42.006Z,100.00
2022-08-02T05:01:10.298Z,100.00
2022-08-02T05:03:38.865Z,99.17
2022-08-02T05:06:18.657Z,99.59
2022-08-02T05:08:52.497Z,99.66
2022-08-02T05:11:22.357Z,98.77
2022-08-02T05:14:02.502Z,98.41
2022-08-02T05:16:32.007Z,98.32
2022-08-02T05:19:01.073Z,98.16
2022-08-02T05:21:31.355Z,96.73
2022-08-02T05:23:59.701Z,96.96
2022-08-02T05:26:27.938Z,97.43
2022-08-02T05:28:56.239Z,97.72
2022-08-02T05:31:24.567Z,98.36
2022-08-02T05:33:52.841Z,98.22
2022-08-02T05:36:21.597Z,96.64
2022-08-02T05:38:51.949Z,95.13
2022-08-02T05:41:21.166Z,94.75
2022-08-02T05:43:49.606Z,93.48
2022-08-02T05:46:17.937Z,93.06
2022-08-02T05:48:46.577Z,92.91
2022-08-02T05:51:24.265Z,92.00
2022-08-02T05:54:04.337Z,91.81
2022-08-02T05:56:38.529Z,91.67
2022-08-02T05:59:13.720Z,91.47
2022-08-02T06:01:44.910Z,90.82
2022-08-02T06:04:24.455Z,90.92
2022-08-02T06:06:57.061Z,91.20
2022-08-02T06:09:28.164Z,90.57
2022-08-02T06:12:02.831Z,89.93
2022-08-02T06:14:33.865Z,89.11
2022-08-02T06:17:05.194Z,89.45
2022-08-02T06:19:47.061Z,89.04
2022-08-02T06:22:31.642Z,89.95
2022-08-02T06:25:11.757Z,88.60
2022-08-02T06:27:56.958Z,87.64
2022-08-02T06:30:25.560Z,88.09
2022-08-02T06:32:54.653Z,87.69
2022-08-02T06:35:23.457Z,87.78
2022-08-02T06:37:58.806Z,86.63
2022-08-02T06:40:37.430Z,86.54
2022-08-02T06:43:13.880Z,86.49
2022-08-02T06:45:42.273Z,87.18
2022-08-02T06:48:11.521Z,86.20
2022-08-02T06:50:42.064Z,85.72
2022-08-02T06:53:11.797Z,84.75
2022-08-02T06:55:43.720Z,84.02
2022-08-02T06:58:13.533Z,82.12
2022-08-02T07:00:43.814Z,82.33
2022-08-02T07:03:12.300Z,81.58
2022-08-02T07:05:41.473Z,80.15
2022-08-02T07:08:09.829Z,79.89
2022-08-02T07:10:38.051Z,79.89
2022-08-02T07:13:07.712Z,80.22
2022-08-02T07:15:36.032Z,80.00
2022-08-02T07:18:04.661Z,79.61
2022-08-02T07:20:33.444Z,79.82
2022-08-02T07:23:01.657Z,78.78
2022-08-02T07:26:01.709Z,78.91
2022-08-02T07:28:24.225Z,78.13
2022-08-02T07:30:53.027Z,77.77
2022-08-02T07:33:38.732Z,77.72
2022-08-02T07:36:09.806Z,77.91
2022-08-02T07:38:45.729Z,77.25
2022-08-02T07:41:15.176Z,76.68
2022-08-02T07:43:44.994Z,76.57
2022-08-02T07:46:13.287Z,75.64
2022-08-02T07:48:41.578Z,74.82
2022-08-02T07:51:12.976Z,75.60
2022-08-02T07:53:50.869Z,75.38
2022-08-02T07:56:30.256Z,74.36
2022-08-02T07:58:59.849Z,74.05
2022-08-02T08:01:28.171Z,74.22
2022-08-02T08:03:57.197Z,72.80
2022-08-02T08:06:29.020Z,72.92
2022-08-02T08:08:57.619Z,73.32
2022-08-02T08:11:26.070Z,72.77
2022-08-02T08:13:54.553Z,72.99
2022-08-02T08:16:26.205Z,72.36
2022-08-02T08:18:55.006Z,73.15
2022-08-02T08:21:23.638Z,73.25
2022-08-02T08:23:51.954Z,73.14
2022-08-02T08:26:20.160Z,73.59
2022-08-02T08:28:48.436Z,73.35
2022-08-02T08:31:16.868Z,72.10
2022-08-02T08:33:46.507Z,71.25
2022-08-02T08:36:16.607Z,71.41
2022-08-02T08:38:45.067Z,70.21
2022-08-02T08:41:13.309Z,70.19
2022-08-02T08:43:41.651Z,69.93
2022-08-02T08:46:15.173Z,69.62
2022-08-02T08:48:48.039Z,68.82
2022-08-02T08:51:20.919Z,67.84
2022-08-02T08:53:50.799Z,68.52
2022-08-02T08:56:20.046Z,66.73
2022-08-02T08:58:48.752Z,67.08
2022-08-02T09:01:17.747Z,65.08
2022-08-02T09:03:47.664Z,65.03
2022-08-02T09:06:16.080Z,63.62
2022-08-02T09:08:44.648Z,64.63
2022-08-02T09:11:18.065Z,64.82
2022-08-02T09:13:53.064Z,62.92
2022-08-02T09:16:35.236Z,63.22
2022-08-02T09:19:20.527Z,63.07
2022-08-02T09:21:51.564Z,63.39
2022-08-02T09:24:22.471Z,63.09
2022-08-02T09:26:52.113Z,62.98
2022-08-02T09:29:24.669Z,61.35
2022-08-02T09:31:53.569Z,62.65
2022-08-02T09:34:23.488Z,61.06
2022-08-02T09:36:54.395Z,61.38
2022-08-02T09:39:26.433Z,60.93
2022-08-02T09:42:10.519Z,61.67
2022-08-02T09:44:39.149Z,59.97
2022-08-02T09:47:17.574Z,59.75
2022-08-02T09:49:52.195Z,58.91
2022-08-02T09:52:37.209Z,55.66
2022-08-02T09:55:13.041Z,57.08
2022-08-02T09:57:41.627Z,56.53
2022-08-02T10:00:15.068Z,54.78
2022-08-02T10:03:08.249Z,54.78
2022-08-02T10:05:55.754Z,54.82
2022-08-02T10:08:26.934Z,55.83
2022-08-02T10:11:01.364Z,56.11
2022-08-02T10:13:31.938Z,53.75
2022-08-02T10:16:00.369Z,54.50
2022-08-02T10:18:38.699Z,54.73
2022-08-02T10:21:29.488Z,55.00
2022-08-02T10:24:06.800Z,56.38
2022-08-02T10:26:35.918Z,56.43
2022-08-02T10:29:04.811Z,56.14
2022-08-02T10:31:40.119Z,55.54
2022-08-02T10:34:12.720Z,54.76
2022-08-02T10:36:43.836Z,54.21
2022-08-02T10:39:12.371Z,53.70
2022-08-02T10:41:46.235Z,54.44
2022-08-02T10:44:27.326Z,55.23
2022-08-02T10:47:26.703Z,53.63
2022-08-02T10:49:57.208Z,53.82
2022-08-02T10:52:27.876Z,54.22
2022-08-02T10:54:59.330Z,53.63
2022-08-02T10:57:29.555Z,54.14
2022-08-02T11:00:00.151Z,53.84
2022-08-02T11:02:38.255Z,53.59
2022-08-02T11:05:13.929Z,52.89
2022-08-02T11:07:49.217Z,53.53
2022-08-02T11:10:38.533Z,50.63
2022-08-02T11:13:10.823Z,50.37
2022-08-02T11:16:03.692Z,50.82
2022-08-02T11:19:07.122Z,51.21
2022-08-02T11:21:36.669Z,50.82
2022-08-02T11:24:29.540Z,51.18
2022-08-02T11:26:58.996Z,50.29
2022-08-02T11:29:38.986Z,50.89
2022-08-02T11:32:09.608Z,51.78
2022-08-02T11:34:41.094Z,50.35
2022-08-02T11:37:10.295Z,50.57
2022-08-02T11:39:39.913Z,50.38
2022-08-02T11:42:09.144Z,50.94
2022-08-02T11:44:44.742Z,51.40
2022-08-02T11:47:14.135Z,50.27
2022-08-02T11:49:44.779Z,50.45
2022-08-02T11:52:13.262Z,50.51
2022-08-02T11:54:44.620Z,50.35
2022-08-02T11:57:22.061Z,48.74
2022-08-02T11:59:52.760Z,48.99
2022-08-02T12:02:22.980Z,48.54
2022-08-02T12:04:58.492Z,48.62
2022-08-02T12:07:34.265Z,48.58
2022-08-02T12:10:08.717Z,48.12
2022-08-02T12:12:50.133Z,47.72
2022-08-02T12:15:35.142Z,46.46
2022-08-02T12:18:22.111Z,45.14
2022-08-02T12:20:50.463Z,46.35
2022-08-02T12:23:18.804Z,45.86
2022-08-02T12:26:00.890Z,46.25
2022-08-02T12:28:29.160Z,46.11
2022-08-02T12:31:00.372Z,46.01
2022-08-02T12:33:31.068Z,46.94
2022-08-02T12:35:59.278Z,46.85
2022-08-02T12:38:27.605Z,47.46
2022-08-02T12:40:57.370Z,47.14
2022-08-02T12:43:26.040Z,47.37
2022-08-02T12:45:57.478Z,46.57
2022-08-02T12:48:37.833Z,45.69
2022-08-02T12:51:56.391Z,45.16
2022-08-02T12:54:18.018Z,45.22
2022-08-02T12:56:48.754Z,44.44
2022-08-02T12:59:17.555Z,44.31
2022-08-02T13:01:46.640Z,44.13
2022-08-02T13:04:16.606Z,44.72
2022-08-02T13:06:45.702Z,43.82
2022-08-02T13:09:17.340Z,44.75
2022-08-02T13:11:47.665Z,45.10
2022-08-02T13:14:16.845Z,44.63
2022-08-02T13:16:47.084Z,44.78
2022-08-02T13:19:16.270Z,45.43
2022-08-02T13:22:02.739Z,44.68
2022-08-02T13:24:39.942Z,43.85
2022-08-02T13:27:11.767Z,44.06
2022-08-02T13:29:40.014Z,44.72
2022-08-02T13:32:08.370Z,43.76
2022-08-02T13:34:37.011Z,43.31
2022-08-02T13:37:05.812Z,44.02
2022-08-02T13:39:34.078Z,42.91
2022-08-02T13:42:02.303Z,42.86
2022-08-02T13:44:31.921Z,42.73
2022-08-02T13:47:00.328Z,42.51
2022-08-02T13:49:50.841Z,41.58
2022-08-02T13:52:17.095Z,41.84
2022-08-02T13:54:45.647Z,42.09
2022-08-02T13:57:13.874Z,42.26
2022-08-02T13:59:58.194Z,40.57
2022-08-02T14:02:52.319Z,41.74
2022-08-02T14:05:38.675Z,42.01
2022-08-02T14:08:13.201Z,42.35
2022-08-02T14:10:46.432Z,42.81
2022-08-02T14:13:14.792Z,42.62
2022-08-02T14:15:44.832Z,42.49
2022-08-02T14:18:14.740Z,41.63
2022-08-02T14:20:43.420Z,40.92
2022-08-02T14:23:11.809Z,40.43
2022-08-02T14:25:40.181Z,41.03
2022-08-02T14:28:08.653Z,40.74
2022-08-02T14:30:37.063Z,40.54
2022-08-02T14:33:06.704Z,39.98
2022-08-02T14:35:35.389Z,39.90
2022-08-02T14:38:03.586Z,39.58
2022-08-02T14:40:32.333Z,40.19
2022-08-02T14:43:01.376Z,40.64
2022-08-02T14:45:40.455Z,40.63
2022-08-02T14:48:12.405Z,40.81
2022-08-02T14:50:41.084Z,40.06
2022-08-02T14:53:12.716Z,40.36
2022-08-02T14:55:42.786Z,40.55
2022-08-02T14:58:11.399Z,40.73
2022-08-02T15:00:41.649Z,41.05
2022-08-02T15:03:13.861Z,41.66
2022-08-02T15:05:42.172Z,42.28
2022-08-02T15:08:10.378Z,42.01
2022-08-02T15:10:38.652Z,42.50
2022-08-02T15:13:09.424Z,42.72
2022-08-02T15:15:43.411Z,41.86
2022-08-02T15:18:14.899Z,42.10
2022-08-02T15:20:49.238Z,41.48
2022-08-02T15:23:37.204Z,42.14
2022-08-02T15:26:06.078Z,42.25
2022-08-02T15:28:34.460Z,42.21
2022-08-02T15:31:02.755Z,42.09
2022-08-02T15:33:32.366Z,42.16
2022-08-02T15:36:01.031Z,42.19
2022-08-02T15:38:29.281Z,42.33
2022-08-02T15:40:57.566Z,41.29
2022-08-02T15:43:26.102Z,41.35
2022-08-02T15:45:54.382Z,41.95
2022-08-02T15:48:22.860Z,41.97
2022-08-02T15:50:52.567Z,42.25
2022-08-02T15:53:20.793Z,42.33
2022-08-02T15:56:04.046Z,41.45
2022-08-02T15:58:42.534Z,41.93
2022-08-02T16:01:13.170Z,42.03
2022-08-02T16:03:50.592Z,42.18
2022-08-02T16:06:20.498Z,42.88
2022-08-02T16:08:53.687Z,43.28
2022-08-02T16:11:24.424Z,43.20
2022-08-02T16:13:54.681Z,43.12
2022-08-02T16:16:24.284Z,43.49
2022-08-02T16:18:52.661Z,43.34
2022-08-02T16:21:24.589Z,43.52
2022-08-02T16:23:58.575Z,42.95
2022-08-02T16:26:31.605Z,43.01
2022-08-02T16:29:01.478Z,43.15
2022-08-02T16:31:30.229Z,42.51
2022-08-02T16:33:58.479Z,43.34
2022-08-02T16:36:29.017Z,43.47
2022-08-02T16:38:58.064Z,43.58
2022-08-02T16:41:51.873Z,43.46
2022-08-02T16:44:15.772Z,43.17
2022-08-02T16:46:45.698Z,43.24
2022-08-02T16:50:05.217Z,43.53
2022-08-02T16:52:03.964Z,43.62
2022-08-02T16:54:32.355Z,42.48
2022-08-02T16:57:00.616Z,42.82
2022-08-02T16:59:41.898Z,43.30
2022-08-02T17:02:17.945Z,43.99
2022-08-02T17:04:47.499Z,44.52
2022-08-02T17:08:10.399Z,44.37
2022-08-02T17:10:09.234Z,43.46
2022-08-02T17:12:39.808Z,43.47
2022-08-02T17:16:16.439Z,43.14
2022-08-02T17:18:00.346Z,42.38
2022-08-02T17:20:29.117Z,43.42
2022-08-02T17:23:00.613Z,43.83
2022-08-02T17:25:31.835Z,43.66
2022-08-02T17:28:00.480Z,43.31
2022-08-02T17:30:29.764Z,43.73
2022-08-02T17:32:59.329Z,44.42
2022-08-02T17:35:51.997Z,44.20
2022-08-02T17:38:26.563Z,44.33
2022-08-02T17:40:55.981Z,44.46
2022-08-02T17:43:29.183Z,45.05
2022-08-02T17:46:02.229Z,45.38
2022-08-02T17:48:54.832Z,47.04
2022-08-02T17:51:33.224Z,46.74
2022-08-02T17:54:14.565Z,46.44
2022-08-02T17:56:48.180Z,46.44
2022-08-02T17:59:20.604Z,46.13
2022-08-02T18:01:54.271Z,45.39
2022-08-02T18:07:17.387Z,46.50
2022-08-02T18:09:55.131Z,46.38
2022-08-02T18:12:23.346Z,46.06
2022-08-02T18:14:52.513Z,45.89
2022-08-02T18:17:20.838Z,46.18
2022-08-02T18:19:53.983Z,46.27
2022-08-02T18:22:33.622Z,46.62
2022-08-02T18:25:09.554Z,46.69
2022-08-02T18:27:38.920Z,47.06
2022-08-02T18:30:09.289Z,47.14
2022-08-02T18:33:59.212Z,47.37
2022-08-02T18:35:29.451Z,47.85
2022-08-02T18:38:03.642Z,48.43
2022-08-02T18:40:33.906Z,48.49
2022-08-02T18:43:03.419Z,49.59
2022-08-02T18:45:36.838Z,50.05
2022-08-02T18:48:23.959Z,51.05
2022-08-02T18:50:58.302Z,52.28
2022-08-02T18:53:28.242Z,52.35
2022-08-02T18:56:20.130Z,53.00
2022-08-02T18:58:54.457Z,52.71
2022-08-02T19:01:33.672Z,53.26
2022-08-02T19:04:04.744Z,53.60
2022-08-02T19:06:33.074Z,54.57
2022-08-02T19:09:11.212Z,54.63
2022-08-02T19:11:47.327Z,54.86
2022-08-02T19:14:27.862Z,55.32
2022-08-02T19:16:57.951Z,55.40
2022-08-02T19:19:29.124Z,55.72
2022-08-02T19:22:17.674Z,56.22
2022-08-02T19:24:47.809Z,56.24
2022-08-02T19:27:25.585Z,57.00
2022-08-02T19:29:54.632Z,57.04
2022-08-02T19:32:42.237Z,57.50
2022-08-02T19:35:19.630Z,57.64
2022-08-02T19:38:07.189Z,57.95
2022-08-02T19:40:35.744Z,58.51
2022-08-02T19:44:27.559Z,58.66
2022-08-02T19:45:57.025Z,58.31
2022-08-02T19:48:26.971Z,58.47
2022-08-02T19:51:00.474Z,58.68
2022-08-02T19:53:46.910Z,58.45
2022-08-02T19:56:21.184Z,58.11
2022-08-02T19:58:57.624Z,58.76
2022-08-02T20:01:38.709Z,59.07
2022-08-02T20:04:13.094Z,58.91
2022-08-02T20:06:45.936Z,59.11
2022-08-02T20:09:17.152Z,60.49
2022-08-02T20:11:54.046Z,60.87
2022-08-02T20:14:26.857Z,61.53
2022-08-02T20:16:57.098Z,62.29
2022-08-02T20:19:29.067Z,62.43
2022-08-02T20:22:00.335Z,62.31
2022-08-02T20:24:29.661Z,62.33
2022-08-02T20:26:59.029Z,62.19
2022-08-02T20:29:43.427Z,62.22
2022-08-02T20:32:22.902Z,62.85
2022-08-02T20:34:52.415Z,62.88
2022-08-02T20:37:59.497Z,63.28
2022-08-02T20:40:16.881Z,63.47
2022-08-02T20:42:47.878Z,63.29
2022-08-02T20:45:18.085Z,63.24
2022-08-02T20:47:49.746Z,64.02
2022-08-02T20:50:38.511Z,64.50
2022-08-02T20:53:08.149Z,64.24
2022-08-02T20:55:55.506Z,64.32
2022-08-02T20:58:27.246Z,64.50
2022-08-02T21:00:59.776Z,64.70
2022-08-02T21:03:39.102Z,64.12
2022-08-02T21:06:09.794Z,63.46
2022-08-02T21:08:38.202Z,64.30
2022-08-02T21:11:09.395Z,63.78
2022-08-02T21:13:46.716Z,64.48
2022-08-02T21:16:30.635Z,64.58
2022-08-02T21:19:00.258Z,65.72
2022-08-02T21:21:29.775Z,66.66
2022-08-02T21:23:59.168Z,67.35
2022-08-02T21:26:31.024Z,66.54
2022-08-02T21:29:03.580Z,66.89
2022-08-02T21:31:36.108Z,67.46
2022-08-02T21:34:07.620Z,67.55
2022-08-02T21:36:51.076Z,67.47
2022-08-02T21:39:20.396Z,67.50
2022-08-02T21:41:49.387Z,67.89
2022-08-02T21:44:19.415Z,68.11
2022-08-02T21:46:50.966Z,68.59
2022-08-02T21:49:20.502Z,68.74
2022-08-02T21:54:39.810Z,67.76
2022-08-02T21:57:15.608Z,68.04
2022-08-02T21:59:46.260Z,67.74
2022-08-02T22:02:31.066Z,67.14
2022-08-02T22:04:59.426Z,67.65
2022-08-02T22:07:38.438Z,67.89
2022-08-02T22:10:09.729Z,68.16
2022-08-02T22:12:38.098Z,68.41
2022-08-02T22:15:10.554Z,68.99
2022-08-02T22:17:53.625Z,69.09
2022-08-02T22:20:29.142Z,69.96
2022-08-02T22:22:57.608Z,70.82
2022-08-02T22:25:31.219Z,70.71
2022-08-02T22:28:38.404Z,70.98
2022-08-02T22:30:56.989Z,71.40
2022-08-02T22:33:47.167Z,71.46
2022-08-02T22:36:30.356Z,72.02
2022-08-02T22:38:59.176Z,71.96
2022-08-02T22:42:02.050Z,72.36
2022-08-02T22:44:18.418Z,72.35
2022-08-02T22:46:50.104Z,72.15
2022-08-02T22:49:38.738Z,72.26
2022-08-02T22:52:08.761Z,72.19
2022-08-02T22:54:39.281Z,71.87
2022-08-02T22:57:11.472Z,71.94
2022-08-02T22:59:12.445Z,67.97
2022-08-02T22:59:41.078Z,71.86
2022-08-02T23:02:10.422Z,72.06
2022-08-02T23:04:40.213Z,72.90
2022-08-02T23:07:08.482Z,73.24
2022-08-02T23:09:36.885Z,73.02
2022-08-02T23:12:06.150Z,73.34
2022-08-02T23:14:34.473Z,72.91
2022-08-02T23:17:20.379Z,73.30
2022-08-02T23:19:53.068Z,73.02
2022-08-02T23:22:24.197Z,73.71
2022-08-02T23:24:59.660Z,74.37
2022-08-02T23:27:28.196Z,74.53
2022-08-02T23:29:56.468Z,74.45
2022-08-02T23:32:26.163Z,74.50
2022-08-02T23:34:56.675Z,74.26
2022-08-02T23:37:25.929Z,74.95
2022-08-02T23:39:54.225Z,74.62
2022-08-02T23:42:23.398Z,75.25
2022-08-02T23:44:51.852Z,75.25
2022-08-02T23:47:20.782Z,75.40
2022-08-02T23:49:49.328Z,75.55
2022-08-02T23:52:19.351Z,75.41
2022-08-02T23:54:47.687Z,75.83
2022-08-02T23:57:19.783Z,75.61
2022-08-02T23:59:51.629Z,76.36
